sensor_id;sensor_type;location;lat;lon;timestamp;P1;durP1;ratioP1;P2;durP2;ratioP2
11396;SDS011;5754;43.726;7.416;2023-06-01T00:00:31;11.80;;;6.22;;
11396;SDS011;5754;43.726;7.416;2023-06-01T00:03:06;12.02;;;6.55;;
11396;SDS011;5754;43.726;7.416;2023-06-01T00:05:41;12.10;;;6.55;;
11396;SDS011;5754;43.726;7.416;2023-06-01T00:08:17;10.88;;;6.87;;
11396;SDS011;5754;43.726;7.416;2023-06-01T00:10:52;9.35;;;6.10;;
11396;SDS011;5754;43.726;7.416;2023-06-01T00:13:28;9.43;;;6.37;;
11396;SDS011;5754;43.726;7.416;2023-06-01T00:16:03;9.45;;;6.68;;
11396;SDS011;5754;43.726;7.416;2023-06-01T00:18:38;9.23;;;5.70;;
11396;SDS011;5754;43.726;7.416;2023-06-01T00:21:14;8.95;;;6.50;;
11396;SDS011;5754;43.726;7.416;2023-06-01T00:23:49;8.55;;;6.15;;
11396;SDS011;5754;43.726;7.416;2023-06-01T00:26:25;12.65;;;6.20;;
11396;SDS011;5754;43.726;7.416;2023-06-01T00:29:01;11.52;;;6.78;;
11396;SDS011;5754;43.726;7.416;2023-06-01T00:31:36;8.55;;;5.62;;
11396;SDS011;5754;43.726;7.416;2023-06-01T00:34:11;15.47;;;6.20;;
11396;SDS011;5754;43.726;7.416;2023-06-01T00:36:47;12.00;;;6.28;;
11396;SDS011;5754;43.726;7.416;2023-06-01T00:39:23;10.38;;;5.97;;
11396;SDS011;5754;43.726;7.416;2023-06-01T00:41:59;15.20;;;6.40;;
11396;SDS011;5754;43.726;7.416;2023-06-01T00:44:34;12.73;;;6.18;;
11396;SDS011;5754;43.726;7.416;2023-06-01T00:47:10;8.85;;;5.80;;
11396;SDS011;5754;43.726;7.416;2023-06-01T00:49:46;10.35;;;6.70;;
11396;SDS011;5754;43.726;7.416;2023-06-01T00:52:33;11.65;;;6.32;;
11396;SDS011;5754;43.726;7.416;2023-06-01T00:55:10;14.23;;;6.53;;
11396;SDS011;5754;43.726;7.416;2023-06-01T00:57:45;11.07;;;6.57;;
11396;SDS011;5754;43.726;7.416;2023-06-01T01:00:21;10.63;;;5.97;;
11396;SDS011;5754;43.726;7.416;2023-06-01T01:02:56;11.52;;;5.95;;
11396;SDS011;5754;43.726;7.416;2023-06-01T01:05:31;9.30;;;6.07;;
11396;SDS011;5754;43.726;7.416;2023-06-01T01:08:09;11.18;;;6.32;;
11396;SDS011;5754;43.726;7.416;2023-06-01T01:13:50;8.05;;;5.85;;
11396;SDS011;5754;43.726;7.416;2023-06-01T01:16:28;7.72;;;6.18;;
11396;SDS011;5754;43.726;7.416;2023-06-01T01:19:18;11.93;;;6.35;;
11396;SDS011;5754;43.726;7.416;2023-06-01T01:22:07;8.93;;;6.05;;
11396;SDS011;5754;43.726;7.416;2023-06-01T01:27:39;9.43;;;5.95;;
11396;SDS011;5754;43.726;7.416;2023-06-01T01:30:21;8.13;;;6.33;;
11396;SDS011;5754;43.726;7.416;2023-06-01T01:32:57;10.77;;;5.90;;
11396;SDS011;5754;43.726;7.416;2023-06-01T01:35:33;8.10;;;5.78;;
11396;SDS011;5754;43.726;7.416;2023-06-01T01:38:10;9.35;;;5.87;;
11396;SDS011;5754;43.726;7.416;2023-06-01T01:40:45;9.63;;;6.60;;
11396;SDS011;5754;43.726;7.416;2023-06-01T01:43:21;10.43;;;5.95;;
11396;SDS011;5754;43.726;7.416;2023-06-01T01:45:59;7.72;;;6.32;;
11396;SDS011;5754;43.726;7.416;2023-06-01T01:48:47;10.77;;;6.07;;
11396;SDS011;5754;43.726;7.416;2023-06-01T01:51:27;10.03;;;5.90;;
11396;SDS011;5754;43.726;7.416;2023-06-01T01:54:05;9.57;;;6.43;;
11396;SDS011;5754;43.726;7.416;2023-06-01T01:56:41;9.75;;;5.85;;
11396;SDS011;5754;43.726;7.416;2023-06-01T01:59:17;10.15;;;5.75;;
11396;SDS011;5754;43.726;7.416;2023-06-01T02:01:52;9.43;;;6.05;;
11396;SDS011;5754;43.726;7.416;2023-06-01T02:04:28;7.85;;;6.10;;
11396;SDS011;5754;43.726;7.416;2023-06-01T02:07:05;9.02;;;6.30;;
11396;SDS011;5754;43.726;7.416;2023-06-01T02:09:41;11.27;;;6.30;;
11396;SDS011;5754;43.726;7.416;2023-06-01T02:12:17;10.20;;;6.00;;
11396;SDS011;5754;43.726;7.416;2023-06-01T02:14:52;13.27;;;6.82;;
11396;SDS011;5754;43.726;7.416;2023-06-01T02:17:28;11.05;;;7.15;;
11396;SDS011;5754;43.726;7.416;2023-06-01T02:20:03;10.57;;;6.57;;
11396;SDS011;5754;43.726;7.416;2023-06-01T02:22:39;14.48;;;6.62;;
11396;SDS011;5754;43.726;7.416;2023-06-01T02:25:14;11.50;;;6.75;;
11396;SDS011;5754;43.726;7.416;2023-06-01T02:28:04;9.68;;;6.53;;
11396;SDS011;5754;43.726;7.416;2023-06-01T02:30:41;8.30;;;5.70;;
11396;SDS011;5754;43.726;7.416;2023-06-01T02:33:17;8.85;;;6.22;;
11396;SDS011;5754;43.726;7.416;2023-06-01T02:35:52;11.12;;;6.50;;
11396;SDS011;5754;43.726;7.416;2023-06-01T02:38:28;10.77;;;6.20;;
11396;SDS011;5754;43.726;7.416;2023-06-01T02:41:03;10.40;;;6.43;;
11396;SDS011;5754;43.726;7.416;2023-06-01T02:43:39;11.63;;;6.50;;
11396;SDS011;5754;43.726;7.416;2023-06-01T02:46:14;11.10;;;6.60;;
11396;SDS011;5754;43.726;7.416;2023-06-01T02:48:50;8.60;;;6.40;;
11396;SDS011;5754;43.726;7.416;2023-06-01T02:51:26;7.55;;;5.93;;
11396;SDS011;5754;43.726;7.416;2023-06-01T02:54:10;8.32;;;6.15;;
11396;SDS011;5754;43.726;7.416;2023-06-01T02:56:44;6.90;;;5.87;;
11396;SDS011;5754;43.726;7.416;2023-06-01T02:59:45;8.23;;;6.00;;
11396;SDS011;5754;43.726;7.416;2023-06-01T03:02:20;7.72;;;6.03;;
11396;SDS011;5754;43.726;7.416;2023-06-01T03:04:56;6.85;;;6.07;;
11396;SDS011;5754;43.726;7.416;2023-06-01T03:07:32;9.15;;;6.32;;
11396;SDS011;5754;43.726;7.416;2023-06-01T03:10:16;7.70;;;5.95;;
11396;SDS011;5754;43.726;7.416;2023-06-01T03:13:17;7.40;;;5.55;;
11396;SDS011;5754;43.726;7.416;2023-06-01T03:15:52;8.73;;;5.82;;
11396;SDS011;5754;43.726;7.416;2023-06-01T03:18:28;7.93;;;5.65;;
11396;SDS011;5754;43.726;7.416;2023-06-01T03:21:03;8.50;;;6.20;;
11396;SDS011;5754;43.726;7.416;2023-06-01T03:23:39;7.03;;;5.70;;
11396;SDS011;5754;43.726;7.416;2023-06-01T03:26:17;8.73;;;6.03;;
11396;SDS011;5754;43.726;7.416;2023-06-01T03:28:55;6.37;;;5.78;;
11396;SDS011;5754;43.726;7.416;2023-06-01T03:31:30;8.00;;;6.10;;
11396;SDS011;5754;43.726;7.416;2023-06-01T03:34:09;9.20;;;5.95;;
11396;SDS011;5754;43.726;7.416;2023-06-01T03:36:44;8.40;;;6.30;;
11396;SDS011;5754;43.726;7.416;2023-06-01T03:39:21;6.37;;;5.78;;
11396;SDS011;5754;43.726;7.416;2023-06-01T03:41:57;6.70;;;5.90;;
11396;SDS011;5754;43.726;7.416;2023-06-01T03:44:33;6.97;;;5.75;;
11396;SDS011;5754;43.726;7.416;2023-06-01T03:47:10;6.90;;;5.45;;
11396;SDS011;5754;43.726;7.416;2023-06-01T03:49:45;6.43;;;5.47;;
11396;SDS011;5754;43.726;7.416;2023-06-01T03:52:20;6.18;;;5.60;;
11396;SDS011;5754;43.726;7.416;2023-06-01T03:54:56;8.82;;;5.90;;
11396;SDS011;5754;43.726;7.416;2023-06-01T03:57:56;10.00;;;5.90;;
11396;SDS011;5754;43.726;7.416;2023-06-01T04:00:32;8.60;;;5.80;;
11396;SDS011;5754;43.726;7.416;2023-06-01T04:03:08;7.05;;;5.57;;
11396;SDS011;5754;43.726;7.416;2023-06-01T04:05:44;6.62;;;5.90;;
11396;SDS011;5754;43.726;7.416;2023-06-01T04:08:24;6.97;;;5.90;;
11396;SDS011;5754;43.726;7.416;2023-06-01T04:10:59;11.43;;;5.85;;
11396;SDS011;5754;43.726;7.416;2023-06-01T04:13:34;6.30;;;5.70;;
11396;SDS011;5754;43.726;7.416;2023-06-01T04:16:10;6.45;;;5.85;;
11396;SDS011;5754;43.726;7.416;2023-06-01T04:18:47;6.47;;;5.60;;
11396;SDS011;5754;43.726;7.416;2023-06-01T04:21:25;7.97;;;5.37;;
11396;SDS011;5754;43.726;7.416;2023-06-01T04:24:00;8.85;;;5.87;;
11396;SDS011;5754;43.726;7.416;2023-06-01T04:26:36;8.57;;;5.75;;
11396;SDS011;5754;43.726;7.416;2023-06-01T04:29:11;6.40;;;5.53;;
11396;SDS011;5754;43.726;7.416;2023-06-01T04:31:46;7.50;;;5.80;;
11396;SDS011;5754;43.726;7.416;2023-06-01T04:34:21;7.37;;;5.72;;
11396;SDS011;5754;43.726;7.416;2023-06-01T04:36:57;8.32;;;6.20;;
11396;SDS011;5754;43.726;7.416;2023-06-01T04:39:34;7.50;;;5.47;;
11396;SDS011;5754;43.726;7.416;2023-06-01T04:42:09;9.15;;;5.93;;
11396;SDS011;5754;43.726;7.416;2023-06-01T04:44:47;7.73;;;5.50;;
11396;SDS011;5754;43.726;7.416;2023-06-01T04:47:24;5.65;;;5.12;;
11396;SDS011;5754;43.726;7.416;2023-06-01T04:50:02;7.53;;;5.90;;
11396;SDS011;5754;43.726;7.416;2023-06-01T04:52:39;7.97;;;5.65;;
11396;SDS011;5754;43.726;7.416;2023-06-01T04:55:14;10.93;;;5.50;;
11396;SDS011;5754;43.726;7.416;2023-06-01T04:57:49;9.10;;;5.85;;
11396;SDS011;5754;43.726;7.416;2023-06-01T05:00:24;9.05;;;6.07;;
11396;SDS011;5754;43.726;7.416;2023-06-01T05:03:00;9.95;;;6.00;;
11396;SDS011;5754;43.726;7.416;2023-06-01T05:05:36;8.63;;;5.82;;
11396;SDS011;5754;43.726;7.416;2023-06-01T05:08:13;10.85;;;5.87;;
11396;SDS011;5754;43.726;7.416;2023-06-01T05:10:49;8.80;;;5.97;;
11396;SDS011;5754;43.726;7.416;2023-06-01T05:13:25;9.82;;;5.85;;
11396;SDS011;5754;43.726;7.416;2023-06-01T05:16:02;16.30;;;6.70;;
11396;SDS011;5754;43.726;7.416;2023-06-01T05:18:39;7.30;;;5.87;;
11396;SDS011;5754;43.726;7.416;2023-06-01T05:21:15;7.65;;;6.10;;
11396;SDS011;5754;43.726;7.416;2023-06-01T05:23:49;7.30;;;5.87;;
11396;SDS011;5754;43.726;7.416;2023-06-01T05:26:38;6.72;;;5.93;;
11396;SDS011;5754;43.726;7.416;2023-06-01T05:29:13;8.10;;;6.07;;
11396;SDS011;5754;43.726;7.416;2023-06-01T05:31:49;8.35;;;6.07;;
11396;SDS011;5754;43.726;7.416;2023-06-01T05:34:24;15.52;;;6.25;;
11396;SDS011;5754;43.726;7.416;2023-06-01T05:37:00;8.88;;;5.80;;
11396;SDS011;5754;43.726;7.416;2023-06-01T05:39:37;9.57;;;5.97;;
11396;SDS011;5754;43.726;7.416;2023-06-01T05:42:13;9.35;;;5.78;;
11396;SDS011;5754;43.726;7.416;2023-06-01T05:44:49;8.25;;;5.37;;
11396;SDS011;5754;43.726;7.416;2023-06-01T05:47:24;11.95;;;6.15;;
11396;SDS011;5754;43.726;7.416;2023-06-01T05:50:00;6.00;;;5.37;;
11396;SDS011;5754;43.726;7.416;2023-06-01T05:52:36;6.32;;;5.28;;
11396;SDS011;5754;43.726;7.416;2023-06-01T05:55:13;7.05;;;6.22;;
11396;SDS011;5754;43.726;7.416;2023-06-01T05:57:48;9.10;;;5.10;;
11396;SDS011;5754;43.726;7.416;2023-06-01T06:00:23;8.43;;;5.72;;
11396;SDS011;5754;43.726;7.416;2023-06-01T06:02:58;8.85;;;5.32;;
11396;SDS011;5754;43.726;7.416;2023-06-01T06:05:34;9.23;;;5.72;;
11396;SDS011;5754;43.726;7.416;2023-06-01T06:08:08;8.98;;;5.97;;
11396;SDS011;5754;43.726;7.416;2023-06-01T06:10:44;8.18;;;5.90;;
11396;SDS011;5754;43.726;7.416;2023-06-01T06:13:18;7.30;;;6.10;;
11396;SDS011;5754;43.726;7.416;2023-06-01T06:15:53;5.62;;;5.00;;
11396;SDS011;5754;43.726;7.416;2023-06-01T06:18:29;7.75;;;5.70;;
11396;SDS011;5754;43.726;7.416;2023-06-01T06:21:05;9.93;;;6.25;;
11396;SDS011;5754;43.726;7.416;2023-06-01T06:23:40;8.35;;;5.75;;
11396;SDS011;5754;43.726;7.416;2023-06-01T06:26:17;9.13;;;5.50;;
11396;SDS011;5754;43.726;7.416;2023-06-01T06:28:51;8.68;;;5.55;;
11396;SDS011;5754;43.726;7.416;2023-06-01T06:31:28;6.93;;;5.60;;
11396;SDS011;5754;43.726;7.416;2023-06-01T06:34:03;6.95;;;5.37;;
11396;SDS011;5754;43.726;7.416;2023-06-01T06:36:53;6.75;;;5.43;;
11396;SDS011;5754;43.726;7.416;2023-06-01T06:39:28;6.43;;;5.53;;
11396;SDS011;5754;43.726;7.416;2023-06-01T06:42:03;7.10;;;5.62;;
11396;SDS011;5754;43.726;7.416;2023-06-01T06:44:38;6.72;;;5.28;;
11396;SDS011;5754;43.726;7.416;2023-06-01T06:47:14;5.97;;;5.30;;
11396;SDS011;5754;43.726;7.416;2023-06-01T06:49:52;6.60;;;5.35;;
11396;SDS011;5754;43.726;7.416;2023-06-01T06:52:27;6.62;;;5.20;;
11396;SDS011;5754;43.726;7.416;2023-06-01T06:55:03;7.05;;;5.03;;
11396;SDS011;5754;43.726;7.416;2023-06-01T06:57:38;5.37;;;4.87;;
11396;SDS011;5754;43.726;7.416;2023-06-01T07:00:14;5.43;;;4.97;;
11396;SDS011;5754;43.726;7.416;2023-06-01T07:02:49;5.60;;;4.95;;
11396;SDS011;5754;43.726;7.416;2023-06-01T07:05:24;7.12;;;4.78;;
11396;SDS011;5754;43.726;7.416;2023-06-01T07:07:59;5.85;;;5.25;;
11396;SDS011;5754;43.726;7.416;2023-06-01T07:10:34;7.15;;;4.95;;
11396;SDS011;5754;43.726;7.416;2023-06-01T07:13:10;5.22;;;4.75;;
11396;SDS011;5754;43.726;7.416;2023-06-01T07:15:44;7.03;;;4.93;;
11396;SDS011;5754;43.726;7.416;2023-06-01T07:18:20;5.20;;;4.70;;
11396;SDS011;5754;43.726;7.416;2023-06-01T07:20:55;6.70;;;5.18;;
11396;SDS011;5754;43.726;7.416;2023-06-01T07:23:31;8.38;;;4.97;;
11396;SDS011;5754;43.726;7.416;2023-06-01T07:26:06;5.75;;;5.05;;
11396;SDS011;5754;43.726;7.416;2023-06-01T07:28:41;5.78;;;5.15;;
11396;SDS011;5754;43.726;7.416;2023-06-01T07:31:16;5.60;;;5.10;;
11396;SDS011;5754;43.726;7.416;2023-06-01T07:33:52;9.80;;;5.50;;
11396;SDS011;5754;43.726;7.416;2023-06-01T07:36:26;8.05;;;5.28;;
11396;SDS011;5754;43.726;7.416;2023-06-01T07:39:02;5.60;;;5.07;;
11396;SDS011;5754;43.726;7.416;2023-06-01T07:41:39;7.03;;;4.70;;
11396;SDS011;5754;43.726;7.416;2023-06-01T07:44:16;6.03;;;5.43;;
11396;SDS011;5754;43.726;7.416;2023-06-01T07:46:52;6.37;;;4.90;;
11396;SDS011;5754;43.726;7.416;2023-06-01T07:49:28;6.32;;;5.10;;
11396;SDS011;5754;43.726;7.416;2023-06-01T07:52:04;7.03;;;5.30;;
11396;SDS011;5754;43.726;7.416;2023-06-01T07:54:39;5.40;;;4.90;;
11396;SDS011;5754;43.726;7.416;2023-06-01T07:57:13;6.28;;;5.15;;
11396;SDS011;5754;43.726;7.416;2023-06-01T07:59:48;7.05;;;5.47;;
11396;SDS011;5754;43.726;7.416;2023-06-01T08:02:23;7.10;;;5.00;;
11396;SDS011;5754;43.726;7.416;2023-06-01T08:05:00;9.18;;;5.37;;
11396;SDS011;5754;43.726;7.416;2023-06-01T08:07:36;6.00;;;5.50;;
11396;SDS011;5754;43.726;7.416;2023-06-01T08:10:12;5.65;;;5.22;;
11396;SDS011;5754;43.726;7.416;2023-06-01T08:12:47;7.20;;;5.35;;
11396;SDS011;5754;43.726;7.416;2023-06-01T08:15:22;6.18;;;5.05;;
11396;SDS011;5754;43.726;7.416;2023-06-01T08:17:59;5.65;;;5.07;;
11396;SDS011;5754;43.726;7.416;2023-06-01T08:20:34;6.45;;;5.43;;
11396;SDS011;5754;43.726;7.416;2023-06-01T08:23:11;6.00;;;5.40;;
11396;SDS011;5754;43.726;7.416;2023-06-01T08:25:47;7.87;;;5.70;;
11396;SDS011;5754;43.726;7.416;2023-06-01T08:28:22;6.97;;;5.97;;
11396;SDS011;5754;43.726;7.416;2023-06-01T08:30:56;7.20;;;6.15;;
11396;SDS011;5754;43.726;7.416;2023-06-01T08:33:32;6.28;;;5.68;;
11396;SDS011;5754;43.726;7.416;2023-06-01T08:36:07;7.20;;;5.60;;
11396;SDS011;5754;43.726;7.416;2023-06-01T08:38:42;7.30;;;5.30;;
11396;SDS011;5754;43.726;7.416;2023-06-01T08:44:13;6.57;;;5.93;;
11396;SDS011;5754;43.726;7.416;2023-06-01T08:46:51;6.82;;;5.50;;
11396;SDS011;5754;43.726;7.416;2023-06-01T08:49:25;8.65;;;6.12;;
11396;SDS011;5754;43.726;7.416;2023-06-01T08:52:12;7.00;;;5.65;;
11396;SDS011;5754;43.726;7.416;2023-06-01T08:54:47;6.90;;;6.20;;
11396;SDS011;5754;43.726;7.416;2023-06-01T08:57:22;6.75;;;6.03;;
11396;SDS011;5754;43.726;7.416;2023-06-01T08:59:57;8.52;;;6.37;;
11396;SDS011;5754;43.726;7.416;2023-06-01T09:02:32;8.57;;;5.82;;
11396;SDS011;5754;43.726;7.416;2023-06-01T09:05:07;8.85;;;6.22;;
11396;SDS011;5754;43.726;7.416;2023-06-01T09:07:42;7.53;;;5.90;;
11396;SDS011;5754;43.726;7.416;2023-06-01T09:10:24;12.20;;;5.75;;
11396;SDS011;5754;43.726;7.416;2023-06-01T09:12:59;12.65;;;5.93;;
11396;SDS011;5754;43.726;7.416;2023-06-01T09:15:35;6.62;;;5.78;;
11396;SDS011;5754;43.726;7.416;2023-06-01T09:18:24;8.60;;;6.40;;
11396;SDS011;5754;43.726;7.416;2023-06-01T09:21:12;8.13;;;5.75;;
11396;SDS011;5754;43.726;7.416;2023-06-01T09:23:47;8.80;;;5.90;;
11396;SDS011;5754;43.726;7.416;2023-06-01T09:26:25;8.25;;;6.05;;
11396;SDS011;5754;43.726;7.416;2023-06-01T09:29:01;9.38;;;5.87;;
11396;SDS011;5754;43.726;7.416;2023-06-01T09:31:38;9.07;;;5.50;;
11396;SDS011;5754;43.726;7.416;2023-06-01T09:34:21;7.93;;;5.82;;
11396;SDS011;5754;43.726;7.416;2023-06-01T09:36:56;7.72;;;5.70;;
11396;SDS011;5754;43.726;7.416;2023-06-01T09:39:39;10.40;;;5.93;;
11396;SDS011;5754;43.726;7.416;2023-06-01T09:42:15;6.00;;;5.25;;
11396;SDS011;5754;43.726;7.416;2023-06-01T09:44:49;6.07;;;5.47;;
11396;SDS011;5754;43.726;7.416;2023-06-01T09:47:26;7.25;;;5.68;;
11396;SDS011;5754;43.726;7.416;2023-06-01T09:50:02;5.80;;;5.30;;
11396;SDS011;5754;43.726;7.416;2023-06-01T09:52:38;9.63;;;6.07;;
11396;SDS011;5754;43.726;7.416;2023-06-01T09:55:13;6.53;;;5.55;;
11396;SDS011;5754;43.726;7.416;2023-06-01T09:57:47;7.82;;;5.82;;
11396;SDS011;5754;43.726;7.416;2023-06-01T10:00:23;7.53;;;6.18;;
11396;SDS011;5754;43.726;7.416;2023-06-01T10:02:58;7.37;;;5.55;;
11396;SDS011;5754;43.726;7.416;2023-06-01T10:05:34;7.85;;;5.75;;
11396;SDS011;5754;43.726;7.416;2023-06-01T10:08:12;8.32;;;6.05;;
11396;SDS011;5754;43.726;7.416;2023-06-01T10:10:48;8.05;;;6.15;;
11396;SDS011;5754;43.726;7.416;2023-06-01T10:13:23;6.70;;;6.07;;
11396;SDS011;5754;43.726;7.416;2023-06-01T10:15:59;8.15;;;6.32;;
11396;SDS011;5754;43.726;7.416;2023-06-01T10:18:34;8.10;;;6.35;;
11396;SDS011;5754;43.726;7.416;2023-06-01T10:21:10;8.50;;;6.05;;
11396;SDS011;5754;43.726;7.416;2023-06-01T10:23:45;7.07;;;5.80;;
11396;SDS011;5754;43.726;7.416;2023-06-01T10:26:20;8.10;;;6.60;;
11396;SDS011;5754;43.726;7.416;2023-06-01T10:28:59;7.25;;;5.60;;
11396;SDS011;5754;43.726;7.416;2023-06-01T10:31:38;6.55;;;5.85;;
11396;SDS011;5754;43.726;7.416;2023-06-01T10:34:17;7.28;;;6.57;;
11396;SDS011;5754;43.726;7.416;2023-06-01T10:37:11;10.25;;;6.60;;
11396;SDS011;5754;43.726;7.416;2023-06-01T10:39:46;6.65;;;5.72;;
11396;SDS011;5754;43.726;7.416;2023-06-01T10:48:08;8.05;;;5.82;;
11396;SDS011;5754;43.726;7.416;2023-06-01T10:50:44;7.22;;;6.30;;
11396;SDS011;5754;43.726;7.416;2023-06-01T10:53:50;7.22;;;5.45;;
11396;SDS011;5754;43.726;7.416;2023-06-01T10:56:26;6.47;;;5.85;;
11396;SDS011;5754;43.726;7.416;2023-06-01T10:59:10;8.27;;;6.10;;
11396;SDS011;5754;43.726;7.416;2023-06-01T11:01:48;7.30;;;6.15;;
11396;SDS011;5754;43.726;7.416;2023-06-01T11:04:36;7.30;;;6.03;;
11396;SDS011;5754;43.726;7.416;2023-06-01T11:10:05;7.78;;;6.72;;
11396;SDS011;5754;43.726;7.416;2023-06-01T11:15:34;6.80;;;6.20;;
11396;SDS011;5754;43.726;7.416;2023-06-01T11:21:04;6.85;;;6.15;;
11396;SDS011;5754;43.726;7.416;2023-06-01T11:23:40;7.57;;;6.37;;
11396;SDS011;5754;43.726;7.416;2023-06-01T11:26:20;8.48;;;6.10;;
11396;SDS011;5754;43.726;7.416;2023-06-01T11:29:02;6.68;;;6.00;;
11396;SDS011;5754;43.726;7.416;2023-06-01T11:31:39;8.25;;;6.10;;
11396;SDS011;5754;43.726;7.416;2023-06-01T11:34:15;8.27;;;6.15;;
11396;SDS011;5754;43.726;7.416;2023-06-01T11:36:52;7.72;;;5.72;;
11396;SDS011;5754;43.726;7.416;2023-06-01T11:39:29;8.77;;;6.55;;
11396;SDS011;5754;43.726;7.416;2023-06-01T11:42:05;7.85;;;5.75;;
11396;SDS011;5754;43.726;7.416;2023-06-01T11:44:42;7.55;;;6.40;;
11396;SDS011;5754;43.726;7.416;2023-06-01T11:47:17;8.00;;;5.82;;
11396;SDS011;5754;43.726;7.416;2023-06-01T11:49:53;7.85;;;6.05;;
11396;SDS011;5754;43.726;7.416;2023-06-01T11:52:28;7.62;;;5.87;;
11396;SDS011;5754;43.726;7.416;2023-06-01T11:55:04;7.05;;;6.12;;
11396;SDS011;5754;43.726;7.416;2023-06-01T11:57:40;6.78;;;5.85;;
11396;SDS011;5754;43.726;7.416;2023-06-01T12:00:15;7.12;;;6.43;;
11396;SDS011;5754;43.726;7.416;2023-06-01T12:02:53;8.77;;;6.18;;
11396;SDS011;5754;43.726;7.416;2023-06-01T12:05:40;6.70;;;5.93;;
11396;SDS011;5754;43.726;7.416;2023-06-01T12:08:25;8.45;;;6.70;;
11396;SDS011;5754;43.726;7.416;2023-06-01T12:11:02;7.22;;;5.97;;
11396;SDS011;5754;43.726;7.416;2023-06-01T12:13:38;6.95;;;6.07;;
11396;SDS011;5754;43.726;7.416;2023-06-01T12:16:13;8.23;;;6.30;;
11396;SDS011;5754;43.726;7.416;2023-06-01T12:18:55;7.22;;;5.93;;
11396;SDS011;5754;43.726;7.416;2023-06-01T12:21:30;6.53;;;5.90;;
11396;SDS011;5754;43.726;7.416;2023-06-01T12:24:05;9.07;;;5.75;;
11396;SDS011;5754;43.726;7.416;2023-06-01T12:26:41;6.12;;;5.28;;
11396;SDS011;5754;43.726;7.416;2023-06-01T12:29:33;6.22;;;5.70;;
11396;SDS011;5754;43.726;7.416;2023-06-01T12:32:09;6.15;;;5.55;;
11396;SDS011;5754;43.726;7.416;2023-06-01T12:35:01;7.47;;;6.40;;
11396;SDS011;5754;43.726;7.416;2023-06-01T12:37:37;8.60;;;6.25;;
11396;SDS011;5754;43.726;7.416;2023-06-01T12:40:21;6.65;;;6.00;;
11396;SDS011;5754;43.726;7.416;2023-06-01T12:42:56;6.18;;;5.62;;
11396;SDS011;5754;43.726;7.416;2023-06-01T12:45:37;7.95;;;6.47;;
11396;SDS011;5754;43.726;7.416;2023-06-01T12:48:32;7.30;;;6.50;;
11396;SDS011;5754;43.726;7.416;2023-06-01T12:51:07;5.93;;;5.32;;
11396;SDS011;5754;43.726;7.416;2023-06-01T12:53:42;7.15;;;5.93;;
11396;SDS011;5754;43.726;7.416;2023-06-01T12:56:17;6.05;;;5.30;;
11396;SDS011;5754;43.726;7.416;2023-06-01T12:58:53;6.00;;;5.43;;
11396;SDS011;5754;43.726;7.416;2023-06-01T13:01:28;7.30;;;5.25;;
11396;SDS011;5754;43.726;7.416;2023-06-01T13:04:04;7.30;;;5.45;;
11396;SDS011;5754;43.726;7.416;2023-06-01T13:06:39;9.50;;;5.72;;
11396;SDS011;5754;43.726;7.416;2023-06-01T13:09:15;6.10;;;5.40;;
11396;SDS011;5754;43.726;7.416;2023-06-01T13:11:52;5.70;;;5.20;;
11396;SDS011;5754;43.726;7.416;2023-06-01T13:14:28;7.95;;;5.18;;
11396;SDS011;5754;43.726;7.416;2023-06-01T13:17:03;5.80;;;5.28;;
11396;SDS011;5754;43.726;7.416;2023-06-01T13:19:38;5.30;;;4.80;;
11396;SDS011;5754;43.726;7.416;2023-06-01T13:22:15;5.20;;;4.70;;
11396;SDS011;5754;43.726;7.416;2023-06-01T13:24:50;5.37;;;4.80;;
11396;SDS011;5754;43.726;7.416;2023-06-01T13:27:28;5.62;;;5.03;;
11396;SDS011;5754;43.726;7.416;2023-06-01T13:30:04;5.43;;;4.93;;
11396;SDS011;5754;43.726;7.416;2023-06-01T13:32:40;6.15;;;5.22;;
11396;SDS011;5754;43.726;7.416;2023-06-01T13:35:15;7.25;;;4.97;;
11396;SDS011;5754;43.726;7.416;2023-06-01T13:37:50;5.70;;;4.87;;
11396;SDS011;5754;43.726;7.416;2023-06-01T13:40:26;6.82;;;5.43;;
11396;SDS011;5754;43.726;7.416;2023-06-01T13:43:01;6.28;;;5.57;;
11396;SDS011;5754;43.726;7.416;2023-06-01T13:45:36;8.07;;;5.78;;
11396;SDS011;5754;43.726;7.416;2023-06-01T13:48:11;10.07;;;6.78;;
11396;SDS011;5754;43.726;7.416;2023-06-01T13:50:48;7.53;;;6.12;;
11396;SDS011;5754;43.726;7.416;2023-06-01T13:53:23;8.45;;;6.10;;
11396;SDS011;5754;43.726;7.416;2023-06-01T13:55:59;7.07;;;5.85;;
11396;SDS011;5754;43.726;7.416;2023-06-01T13:58:34;8.00;;;6.68;;
11396;SDS011;5754;43.726;7.416;2023-06-01T14:01:09;8.35;;;6.57;;
11396;SDS011;5754;43.726;7.416;2023-06-01T14:03:45;6.40;;;5.80;;
11396;SDS011;5754;43.726;7.416;2023-06-01T14:06:19;7.85;;;5.55;;
11396;SDS011;5754;43.726;7.416;2023-06-01T14:08:55;6.47;;;5.80;;
11396;SDS011;5754;43.726;7.416;2023-06-01T14:11:30;7.00;;;6.30;;
11396;SDS011;5754;43.726;7.416;2023-06-01T14:14:06;6.43;;;5.82;;
11396;SDS011;5754;43.726;7.416;2023-06-01T14:16:41;8.20;;;6.45;;
11396;SDS011;5754;43.726;7.416;2023-06-01T14:19:17;9.80;;;6.47;;
11396;SDS011;5754;43.726;7.416;2023-06-01T14:21:52;6.72;;;6.07;;
11396;SDS011;5754;43.726;7.416;2023-06-01T14:24:28;7.50;;;6.50;;
11396;SDS011;5754;43.726;7.416;2023-06-01T14:27:04;7.68;;;5.85;;
11396;SDS011;5754;43.726;7.416;2023-06-01T14:29:42;8.10;;;5.60;;
11396;SDS011;5754;43.726;7.416;2023-06-01T14:32:18;7.05;;;6.15;;
11396;SDS011;5754;43.726;7.416;2023-06-01T14:34:54;8.75;;;6.18;;
11396;SDS011;5754;43.726;7.416;2023-06-01T14:37:29;9.18;;;5.65;;
11396;SDS011;5754;43.726;7.416;2023-06-01T14:40:08;5.75;;;5.15;;
11396;SDS011;5754;43.726;7.416;2023-06-01T14:42:43;6.75;;;5.62;;
11396;SDS011;5754;43.726;7.416;2023-06-01T14:45:18;8.85;;;5.47;;
11396;SDS011;5754;43.726;7.416;2023-06-01T14:47:55;7.12;;;5.70;;
11396;SDS011;5754;43.726;7.416;2023-06-01T14:50:31;9.13;;;5.53;;
11396;SDS011;5754;43.726;7.416;2023-06-01T14:53:05;5.85;;;5.18;;
11396;SDS011;5754;43.726;7.416;2023-06-01T14:55:41;7.57;;;4.95;;
11396;SDS011;5754;43.726;7.416;2023-06-01T14:58:18;12.98;;;5.50;;
11396;SDS011;5754;43.726;7.416;2023-06-01T15:00:52;5.70;;;5.05;;
11396;SDS011;5754;43.726;7.416;2023-06-01T15:03:27;9.85;;;5.80;;
11396;SDS011;5754;43.726;7.416;2023-06-01T15:06:01;6.75;;;5.40;;
11396;SDS011;5754;43.726;7.416;2023-06-01T15:08:37;8.80;;;5.70;;
11396;SDS011;5754;43.726;7.416;2023-06-01T15:11:11;10.57;;;5.47;;
11396;SDS011;5754;43.726;7.416;2023-06-01T15:13:48;7.07;;;5.10;;
11396;SDS011;5754;43.726;7.416;2023-06-01T15:16:24;6.12;;;5.53;;
11396;SDS011;5754;43.726;7.416;2023-06-01T15:19:00;7.30;;;5.45;;
11396;SDS011;5754;43.726;7.416;2023-06-01T15:21:35;9.73;;;6.07;;
11396;SDS011;5754;43.726;7.416;2023-06-01T15:24:10;10.40;;;5.87;;
11396;SDS011;5754;43.726;7.416;2023-06-01T15:26:45;10.00;;;5.90;;
11396;SDS011;5754;43.726;7.416;2023-06-01T15:29:20;7.30;;;5.70;;
11396;SDS011;5754;43.726;7.416;2023-06-01T15:31:56;9.73;;;6.40;;
11396;SDS011;5754;43.726;7.416;2023-06-01T15:34:30;8.38;;;6.45;;
11396;SDS011;5754;43.726;7.416;2023-06-01T15:37:05;12.05;;;6.07;;
11396;SDS011;5754;43.726;7.416;2023-06-01T15:39:40;9.70;;;6.60;;
11396;SDS011;5754;43.726;7.416;2023-06-01T15:42:15;7.00;;;5.93;;
11396;SDS011;5754;43.726;7.416;2023-06-01T15:44:50;6.65;;;5.93;;
11396;SDS011;5754;43.726;7.416;2023-06-01T15:47:25;10.00;;;6.47;;
11396;SDS011;5754;43.726;7.416;2023-06-01T15:50:00;8.38;;;6.60;;
11396;SDS011;5754;43.726;7.416;2023-06-01T15:52:36;9.20;;;6.37;;
11396;SDS011;5754;43.726;7.416;2023-06-01T15:55:12;11.27;;;6.50;;
11396;SDS011;5754;43.726;7.416;2023-06-01T15:57:47;8.18;;;6.22;;
11396;SDS011;5754;43.726;7.416;2023-06-01T16:00:22;7.35;;;6.32;;
11396;SDS011;5754;43.726;7.416;2023-06-01T16:02:58;7.50;;;6.80;;
11396;SDS011;5754;43.726;7.416;2023-06-01T16:05:33;9.60;;;7.80;;
11396;SDS011;5754;43.726;7.416;2023-06-01T16:08:08;8.43;;;6.57;;
11396;SDS011;5754;43.726;7.416;2023-06-01T16:10:43;9.25;;;6.28;;
11396;SDS011;5754;43.726;7.416;2023-06-01T16:13:19;8.70;;;6.68;;
11396;SDS011;5754;43.726;7.416;2023-06-01T16:15:54;11.57;;;7.00;;
11396;SDS011;5754;43.726;7.416;2023-06-01T16:18:29;8.43;;;7.03;;
11396;SDS011;5754;43.726;7.416;2023-06-01T16:21:04;7.87;;;6.40;;